createdAt,value
2018-03-27T00:00:10.519Z,74.40
2018-03-27T00:02:38.822Z,73.50
2018-03-27T00:05:06.332Z,73.40
2018-03-27T00:07:33.888Z,73.40
2018-03-27T00:10:01.415Z,73.70
2018-03-27T00:12:28.939Z,73.50
2018-03-27T00:14:56.627Z,73.50
2018-03-27T00:17:24.910Z,73.50
2018-03-27T00:19:52.515Z,73.40
2018-03-27T00:22:20.056Z,73.60
2018-03-27T00:24:47.654Z,73.50
2018-03-27T00:27:14.679Z,73.70
2018-03-27T00:29:53.996Z,74.20
2018-03-27T00:32:34.287Z,73.80
2018-03-27T00:35:13.650Z,73.80
2018-03-27T00:37:53.194Z,73.80
2018-03-27T00:40:33.360Z,73.80
2018-03-27T00:43:04.737Z,73.80
2018-03-27T00:45:32.249Z,73.70
2018-03-27T00:48:01.310Z,73.60
2018-03-27T00:50:28.814Z,73.50
2018-03-27T00:52:57.833Z,74.20
2018-03-27T00:55:26.135Z,74.30
2018-03-27T00:57:53.669Z,74.20
2018-03-27T01:00:21.208Z,74.50
2018-03-27T01:02:48.754Z,74.80
2018-03-27T01:05:16.274Z,75.10
2018-03-27T01:07:44.579Z,75.00
2018-03-27T01:10:12.132Z,75.00
2018-03-27T01:12:39.667Z,74.80
2018-03-27T01:15:08.025Z,74.70
2018-03-27T01:17:35.573Z,74.70
2018-03-27T01:20:03.108Z,74.70
2018-03-27T01:22:31.383Z,74.80
2018-03-27T01:24:59.703Z,74.50
2018-03-27T01:27:27.218Z,74.50
2018-03-27T01:29:55.500Z,74.70
2018-03-27T01:32:23.839Z,75.10
2018-03-27T01:34:51.363Z,75.00
2018-03-27T01:37:18.884Z,75.00
2018-03-27T01:39:46.439Z,75.10
2018-03-27T01:42:13.942Z,74.70
2018-03-27T01:44:42.218Z,74.80
2018-03-27T01:47:10.527Z,75.00
2018-03-27T01:49:38.055Z,74.80
2018-03-27T01:52:06.327Z,74.30
2018-03-27T01:54:33.863Z,74.30
2018-03-27T01:57:01.392Z,74.90
2018-03-27T01:59:28.930Z,75.30
2018-03-27T02:01:57.247Z,75.30
2018-03-27T02:04:24.778Z,75.20
2018-03-27T02:06:53.076Z,75.00
2018-03-27T02:09:21.381Z,74.70
2018-03-27T02:11:54.672Z,74.70
2018-03-27T02:14:27.824Z,74.70
2018-03-27T02:17:01.839Z,73.90
2018-03-27T02:19:35.038Z,74.10
2018-03-27T02:22:02.865Z,74.30
2018-03-27T02:24:33.931Z,74.50
2018-03-27T02:27:01.470Z,74.50
2018-03-27T02:29:28.986Z,74.60
2018-03-27T02:31:57.262Z,74.80
2018-03-27T02:34:25.703Z,74.50
2018-03-27T02:36:53.212Z,74.50
2018-03-27T02:39:21.487Z,75.00
2018-03-27T02:41:49.798Z,74.90
2018-03-27T02:44:17.319Z,74.80
2018-03-27T02:46:44.835Z,74.80
2018-03-27T02:49:12.371Z,74.70
2018-03-27T02:51:40.675Z,74.60
2018-03-27T02:54:08.196Z,74.70
2018-03-27T02:56:35.816Z,75.00
2018-03-27T02:59:03.321Z,74.70
2018-03-27T03:01:30.846Z,74.60
2018-03-27T03:03:58.926Z,74.10
2018-03-27T03:06:26.473Z,74.20
2018-03-27T03:08:54.102Z,73.70
2018-03-27T03:11:21.651Z,74.00
2018-03-27T03:13:49.150Z,74.30
2018-03-27T03:16:17.442Z,74.10
2018-03-27T03:18:45.190Z,74.10
2018-03-27T03:21:13.509Z,75.20
2018-03-27T03:23:41.076Z,75.10
2018-03-27T03:26:08.675Z,75.50
2018-03-27T03:28:36.211Z,74.40
2018-03-27T03:31:03.736Z,74.60
2018-03-27T03:33:31.305Z,75.70
2018-03-27T03:35:58.889Z,75.30
2018-03-27T03:38:26.410Z,75.10
2018-03-27T03:40:53.942Z,74.40
2018-03-27T03:43:21.450Z,74.80
2018-03-27T03:45:49.732Z,75.90
2018-03-27T03:48:18.042Z,75.80
2018-03-27T03:50:45.568Z,75.80
2018-03-27T03:53:13.179Z,76.50
2018-03-27T03:55:40.714Z,76.90
2018-03-27T03:58:09.022Z,77.90
2018-03-27T04:00:36.548Z,77.80
2018-03-27T04:03:04.870Z,79.30
2018-03-27T04:05:32.399Z,79.20
2018-03-27T04:08:00.705Z,80.00
2018-03-27T04:10:28.254Z,79.90
2018-03-27T04:12:55.787Z,80.40
2018-03-27T04:15:23.311Z,80.80
2018-03-27T04:17:50.895Z,81.60
2018-03-27T04:20:19.392Z,82.10
2018-03-27T04:22:46.904Z,83.20
2018-03-27T04:25:14.442Z,83.10
2018-03-27T04:27:42.742Z,83.60
2018-03-27T04:30:11.019Z,84.40
2018-03-27T04:32:39.331Z,84.30
2018-03-27T04:35:06.847Z,84.20
2018-03-27T04:37:35.899Z,85.10
2018-03-27T04:40:03.457Z,85.10
2018-03-27T04:42:30.998Z,85.70
2018-03-27T04:44:59.279Z,84.70
2018-03-27T04:47:27.580Z,85.20
2018-03-27T04:49:55.100Z,85.20
2018-03-27T04:52:22.604Z,85.60
2018-03-27T04:54:50.130Z,85.30
2018-03-27T04:57:17.645Z,85.40
2018-03-27T04:59:45.309Z,86.40
2018-03-27T05:02:12.867Z,84.80
2018-03-27T05:04:40.399Z,84.10
2018-03-27T05:07:08.698Z,84.30
2018-03-27T05:09:37.442Z,84.70
2018-03-27T05:12:05.070Z,84.70
2018-03-27T05:14:35.142Z,86.70
2018-03-27T05:17:02.853Z,86.60
2018-03-27T05:19:30.384Z,86.10
2018-03-27T05:21:58.035Z,86.50
2018-03-27T05:24:26.366Z,85.70
2018-03-27T05:26:53.908Z,85.80
2018-03-27T05:29:22.183Z,86.40
2018-03-27T05:31:50.506Z,85.40
2018-03-27T05:34:18.021Z,85.40
2018-03-27T05:36:47.047Z,84.80
2018-03-27T05:39:15.361Z,84.50
2018-03-27T05:41:42.872Z,84.50
2018-03-27T05:44:10.379Z,84.90
2018-03-27T05:46:37.909Z,85.60
2018-03-27T05:49:06.189Z,85.90
2018-03-27T05:51:34.463Z,85.60
2018-03-27T05:54:02.039Z,85.60
2018-03-27T05:56:30.380Z,84.40
2018-03-27T05:58:57.858Z,84.30
2018-03-27T06:01:25.414Z,84.90
2018-03-27T06:03:52.927Z,84.60
2018-03-27T06:06:21.224Z,84.80
2018-03-27T06:08:48.764Z,84.70
2018-03-27T06:11:17.126Z,85.60
2018-03-27T06:13:45.416Z,85.80
2018-03-27T06:16:13.703Z,85.80
2018-03-27T06:18:41.980Z,84.80
2018-03-27T06:21:10.414Z,84.90
2018-03-27T06:23:38.050Z,84.70
2018-03-27T06:26:05.578Z,84.30
2018-03-27T06:28:33.095Z,85.50
2018-03-27T06:31:00.642Z,86.10
2018-03-27T06:33:28.815Z,84.30
2018-03-27T06:35:56.417Z,85.70
2018-03-27T06:38:23.946Z,84.70
2018-03-27T06:40:52.231Z,86.10
2018-03-27T06:43:19.754Z,86.00
2018-03-27T06:45:48.805Z,86.20
2018-03-27T06:48:16.325Z,86.00
2018-03-27T06:50:44.637Z,86.80
2018-03-27T06:53:12.185Z,86.70
2018-03-27T06:55:39.708Z,84.50
2018-03-27T06:58:07.228Z,85.70
2018-03-27T07:00:34.767Z,85.20
2018-03-27T07:03:03.042Z,84.00
2018-03-27T07:05:30.766Z,83.90
2018-03-27T07:07:58.315Z,84.10
2018-03-27T07:10:25.863Z,84.80
2018-03-27T07:12:54.158Z,86.10
2018-03-27T07:15:21.728Z,86.00
2018-03-27T07:17:49.274Z,85.30
2018-03-27T07:20:16.835Z,86.00
2018-03-27T07:22:45.155Z,84.50
2018-03-27T07:25:15.038Z,84.40
2018-03-27T07:27:43.324Z,84.70
2018-03-27T07:30:11.630Z,85.00
2018-03-27T07:32:39.342Z,85.00
2018-03-27T07:35:06.917Z,85.50
2018-03-27T07:37:35.230Z,86.80
2018-03-27T07:40:02.758Z,85.80
2018-03-27T07:42:30.388Z,85.60
2018-03-27T07:44:57.959Z,86.00
2018-03-27T07:47:25.482Z,86.70
2018-03-27T07:49:53.760Z,86.30
2018-03-27T07:52:21.314Z,86.30
2018-03-27T07:54:49.639Z,87.00
2018-03-27T07:57:17.194Z,86.90
2018-03-27T07:59:44.739Z,85.70
2018-03-27T08:02:12.271Z,83.60
2018-03-27T08:04:39.809Z,85.50
2018-03-27T08:07:07.368Z,84.10
2018-03-27T08:09:34.909Z,80.90
2018-03-27T08:12:02.442Z,79.90
2018-03-27T08:14:30.755Z,78.10
2018-03-27T08:16:58.286Z,78.10
2018-03-27T08:19:26.567Z,78.40
2018-03-27T08:21:54.882Z,78.70
2018-03-27T08:24:22.469Z,78.30
2018-03-27T08:26:50.763Z,77.30
2018-03-27T08:29:18.331Z,77.30
2018-03-27T08:31:45.891Z,76.00
2018-03-27T08:34:13.442Z,74.60
2018-03-27T08:36:41.022Z,74.30
2018-03-27T08:39:08.656Z,72.90
2018-03-27T08:41:36.179Z,74.60
2018-03-27T08:44:03.705Z,67.10
2018-03-27T08:46:31.224Z,66.80
2018-03-27T08:48:59.512Z,70.40
2018-03-27T08:51:27.048Z,70.40
2018-03-27T08:53:54.666Z,69.90
2018-03-27T08:56:22.192Z,68.20
2018-03-27T08:58:50.516Z,70.50
2018-03-27T09:01:18.064Z,70.40
2018-03-27T09:03:45.606Z,72.20
2018-03-27T09:06:13.912Z,71.60
2018-03-27T09:08:41.442Z,71.40
2018-03-27T09:11:08.961Z,73.40
2018-03-27T09:13:36.513Z,72.10
2018-03-27T09:16:04.032Z,71.60
2018-03-27T09:18:31.551Z,71.80
2018-03-27T09:20:59.083Z,70.90
2018-03-27T09:23:27.371Z,69.60
2018-03-27T09:25:54.896Z,69.50
2018-03-27T09:28:22.487Z,67.90
2018-03-27T09:30:50.768Z,68.00
2018-03-27T09:33:19.066Z,67.70
2018-03-27T09:35:46.618Z,67.60
2018-03-27T09:38:14.894Z,69.20
2018-03-27T09:40:43.190Z,67.70
2018-03-27T09:43:10.727Z,67.70
2018-03-27T09:45:39.024Z,63.50
2018-03-27T09:48:07.302Z,58.50
2018-03-27T09:50:35.718Z,58.60
2018-03-27T09:53:03.291Z,58.40
2018-03-27T09:55:30.812Z,53.40
2018-03-27T09:57:59.158Z,47.30
2018-03-27T10:00:32.330Z,47.20
2018-03-27T10:02:59.882Z,49.80
2018-03-27T10:05:27.443Z,50.10
2018-03-27T10:07:55.004Z,46.10
2018-03-27T10:10:22.589Z,44.40
2018-03-27T10:12:50.137Z,44.50
2018-03-27T10:15:17.703Z,43.70
2018-03-27T10:17:45.319Z,40.00
2018-03-27T10:20:13.631Z,35.70
2018-03-27T10:22:41.932Z,39.70
2018-03-27T10:25:09.480Z,39.60
2018-03-27T10:27:37.854Z,34.70
2018-03-27T10:30:06.245Z,35.50
2018-03-27T10:32:33.804Z,35.40
2018-03-27T10:35:02.093Z,35.40
2018-03-27T10:37:29.653Z,35.30
2018-03-27T10:39:57.980Z,32.90
2018-03-27T10:42:25.494Z,33.50
2018-03-27T10:44:53.914Z,30.20
2018-03-27T10:47:21.482Z,30.20
2018-03-27T10:49:49.034Z,34.20
2018-03-27T10:52:16.550Z,31.30
2018-03-27T10:54:44.108Z,31.10
2018-03-27T10:57:13.162Z,29.10
2018-03-27T10:59:40.706Z,29.10
2018-03-27T11:02:09.019Z,29.20
2018-03-27T11:04:36.560Z,29.20
2018-03-27T11:07:04.098Z,29.70
2018-03-27T11:09:32.409Z,27.70
2018-03-27T11:12:00.752Z,27.30
2018-03-27T11:14:28.269Z,27.20
2018-03-27T11:16:55.842Z,25.10
2018-03-27T11:19:23.367Z,28.20
2018-03-27T11:21:51.659Z,24.60
2018-03-27T11:24:19.975Z,26.50
2018-03-27T11:26:47.495Z,26.40
2018-03-27T11:29:15.879Z,25.90
2018-03-27T11:31:43.559Z,25.80
2018-03-27T11:34:11.108Z,25.50
2018-03-27T11:36:39.420Z,22.70
2018-03-27T11:39:06.982Z,22.60
2018-03-27T11:41:34.511Z,24.10
2018-03-27T11:44:03.053Z,28.90
2018-03-27T11:46:30.605Z,28.90
2018-03-27T11:48:58.129Z,27.60
2018-03-27T11:51:26.413Z,28.60
2018-03-27T11:53:53.984Z,28.50
2018-03-27T11:56:22.274Z,28.50
2018-03-27T11:58:50.613Z,27.00
2018-03-27T12:01:18.172Z,27.00
2018-03-27T12:03:46.459Z,26.10
2018-03-27T12:06:14.767Z,26.40
2018-03-27T12:08:43.082Z,24.20
2018-03-27T12:11:10.598Z,24.10
2018-03-27T12:13:38.126Z,23.80
2018-03-27T12:16:05.948Z,24.60
2018-03-27T12:18:34.242Z,25.70
2018-03-27T12:21:02.517Z,24.00
2018-03-27T12:23:30.864Z,25.60
2018-03-27T12:25:58.378Z,25.60
2018-03-27T12:28:26.655Z,30.40
2018-03-27T12:30:54.959Z,31.30
2018-03-27T12:33:22.699Z,31.10
2018-03-27T12:35:50.609Z,32.30
2018-03-27T12:38:18.177Z,33.90
2018-03-27T12:40:45.713Z,37.20
2018-03-27T12:43:13.994Z,39.70
2018-03-27T12:45:41.571Z,39.60
2018-03-27T12:48:09.099Z,42.40
2018-03-27T12:50:36.620Z,42.90
2018-03-27T12:53:04.158Z,43.90
2018-03-27T12:55:31.674Z,44.80
2018-03-27T12:57:59.205Z,46.30
2018-03-27T13:00:26.735Z,46.70
2018-03-27T13:02:55.028Z,47.10
2018-03-27T13:05:22.557Z,47.10
2018-03-27T13:07:50.878Z,47.60
2018-03-27T13:10:18.416Z,47.40
2018-03-27T13:12:46.714Z,49.50
2018-03-27T13:15:14.241Z,48.80
2018-03-27T13:17:43.316Z,40.10
2018-03-27T13:20:10.802Z,40.10
2018-03-27T13:22:39.123Z,36.60
2018-03-27T13:25:06.703Z,36.60
2018-03-27T13:27:34.210Z,33.20
2018-03-27T13:30:01.836Z,32.80
2018-03-27T13:32:29.424Z,31.30
2018-03-27T13:34:57.020Z,30.60
2018-03-27T13:37:25.339Z,29.00
2018-03-27T13:39:52.894Z,28.90
2018-03-27T13:42:20.418Z,30.30
2018-03-27T13:44:48.738Z,31.00
2018-03-27T13:47:16.294Z,31.00
2018-03-27T13:49:44.570Z,35.20
2018-03-27T13:52:12.870Z,38.60
2018-03-27T13:54:40.381Z,38.50
2018-03-27T13:57:07.972Z,37.90
2018-03-27T13:59:35.517Z,40.60
2018-03-27T14:02:03.254Z,41.80
2018-03-27T14:04:30.793Z,42.20
2018-03-27T14:06:58.357Z,43.50
2018-03-27T14:09:25.891Z,44.10
2018-03-27T14:11:53.423Z,43.80
2018-03-27T14:14:20.981Z,44.80
2018-03-27T14:16:48.909Z,43.10
2018-03-27T14:19:17.201Z,42.40
2018-03-27T14:21:45.496Z,43.90
2018-03-27T14:24:13.022Z,43.80
2018-03-27T14:26:40.574Z,45.20
2018-03-27T14:29:08.921Z,45.00
2018-03-27T14:31:36.682Z,45.00
2018-03-27T14:34:04.511Z,44.80
2018-03-27T14:36:32.196Z,45.30
2018-03-27T14:39:00.550Z,45.00
2018-03-27T14:41:29.049Z,46.20
2018-03-27T14:43:56.659Z,46.10
2018-03-27T14:46:24.194Z,46.50
2018-03-27T14:48:52.503Z,45.30
2018-03-27T14:51:20.063Z,45.30
2018-03-27T14:53:47.608Z,46.40
2018-03-27T14:56:15.887Z,46.70
2018-03-27T14:58:44.194Z,46.70
2018-03-27T15:01:11.731Z,46.60
2018-03-27T15:03:40.006Z,47.00
2018-03-27T15:06:08.387Z,47.10
2018-03-27T15:08:36.662Z,47.60
2018-03-27T15:11:04.178Z,47.50
2018-03-27T15:13:31.782Z,47.10
2018-03-27T15:16:00.803Z,48.00
2018-03-27T15:18:29.083Z,48.70
2018-03-27T15:20:57.438Z,49.20
2018-03-27T15:23:24.948Z,49.10
2018-03-27T15:25:52.474Z,48.70
2018-03-27T15:28:20.780Z,50.10
2018-03-27T15:30:49.058Z,53.00
2018-03-27T15:33:17.954Z,53.90
2018-03-27T15:35:46.278Z,54.10
2018-03-27T15:38:13.891Z,54.00
2018-03-27T15:40:41.829Z,53.80
2018-03-27T15:43:10.186Z,52.80
2018-03-27T15:45:37.828Z,53.00
2018-03-27T15:48:06.103Z,53.50
2018-03-27T15:50:34.499Z,55.30
2018-03-27T15:53:02.027Z,55.20
2018-03-27T15:55:31.378Z,55.90
2018-03-27T15:57:58.945Z,55.80
2018-03-27T16:00:26.463Z,55.10
2018-03-27T16:02:54.015Z,55.00
2018-03-27T16:05:21.590Z,55.20
2018-03-27T16:07:49.155Z,54.80
2018-03-27T16:10:16.810Z,54.70
2018-03-27T16:12:44.518Z,55.20
2018-03-27T16:15:12.065Z,55.00
2018-03-27T16:17:39.595Z,55.20
2018-03-27T16:20:07.159Z,55.60
2018-03-27T16:22:34.691Z,55.00
2018-03-27T16:25:02.219Z,54.20
2018-03-27T16:27:29.836Z,55.00
2018-03-27T16:29:57.403Z,55.50
2018-03-27T16:32:24.924Z,56.50
2018-03-27T16:34:53.246Z,57.10
2018-03-27T16:37:20.900Z,57.00
2018-03-27T16:39:49.016Z,57.00
2018-03-27T16:42:17.512Z,56.90
2018-03-27T16:44:45.912Z,56.90
2018-03-27T16:47:14.219Z,57.10
2018-03-27T16:49:41.767Z,57.10
2018-03-27T16:52:10.049Z,57.50
2018-03-27T16:54:38.363Z,57.70
2018-03-27T16:57:05.894Z,57.70
2018-03-27T16:59:34.416Z,58.30
2018-03-27T17:02:01.943Z,58.10
2018-03-27T17:04:30.256Z,59.70
2018-03-27T17:06:57.771Z,59.20
2018-03-27T17:09:25.307Z,59.60
2018-03-27T17:11:52.867Z,59.90
2018-03-27T17:14:20.392Z,60.50
2018-03-27T17:16:48.685Z,61.00
2018-03-27T17:19:16.244Z,60.80
2018-03-27T17:21:44.793Z,60.50
2018-03-27T17:24:13.082Z,60.00
2018-03-27T17:26:40.703Z,60.00
2018-03-27T17:29:08.456Z,61.00
2018-03-27T17:31:35.991Z,63.10
2018-03-27T17:34:04.331Z,64.30
2018-03-27T17:36:31.949Z,63.70
2018-03-27T17:39:00.242Z,64.90
2018-03-27T17:41:28.031Z,64.80
2018-03-27T17:43:55.602Z,65.60
2018-03-27T17:46:23.126Z,65.60
2018-03-27T17:48:51.437Z,66.00
2018-03-27T17:51:18.951Z,65.80
2018-03-27T17:53:47.258Z,66.30
2018-03-27T17:56:15.563Z,66.10
2018-03-27T17:58:43.092Z,66.10
2018-03-27T18:01:12.437Z,66.30
2018-03-27T18:03:40.018Z,66.20
2018-03-27T18:06:07.535Z,66.40
2018-03-27T18:08:35.828Z,66.80
2018-03-27T18:11:03.443Z,66.60
2018-03-27T18:13:32.142Z,66.80
2018-03-27T18:15:59.684Z,66.30
2018-03-27T18:18:27.294Z,66.60
2018-03-27T18:20:54.849Z,66.80
2018-03-27T18:23:22.402Z,67.50
2018-03-27T18:25:49.991Z,67.40
2018-03-27T18:28:18.278Z,67.80
2018-03-27T18:30:46.580Z,67.60
2018-03-27T18:33:14.123Z,67.40
2018-03-27T18:35:41.657Z,68.00
2018-03-27T18:38:09.399Z,68.20
2018-03-27T18:40:36.961Z,68.10
2018-03-27T18:43:04.592Z,67.80
2018-03-27T18:45:32.867Z,68.30
2018-03-27T18:48:01.972Z,68.50
2018-03-27T18:50:29.482Z,68.50
2018-03-27T18:52:57.011Z,69.10
2018-03-27T18:55:25.320Z,69.50
2018-03-27T18:57:52.871Z,69.40
2018-03-27T19:00:20.382Z,69.80
2018-03-27T19:02:47.919Z,69.90
2018-03-27T19:05:15.452Z,69.80
2018-03-27T19:07:42.980Z,70.00
2018-03-27T19:10:12.032Z,69.90
2018-03-27T19:12:39.709Z,69.80
2018-03-27T19:15:07.230Z,69.80
2018-03-27T19:17:35.566Z,69.80
2018-03-27T19:20:03.099Z,69.80
2018-03-27T19:22:30.635Z,69.80
2018-03-27T19:24:58.281Z,69.70
2018-03-27T19:27:25.887Z,69.90
2018-03-27T19:29:54.748Z,69.80
2018-03-27T19:32:22.623Z,69.80
2018-03-27T19:34:50.130Z,70.00
2018-03-27T19:37:17.820Z,70.30
2018-03-27T19:39:45.427Z,70.90
2018-03-27T19:42:12.966Z,72.10
2018-03-27T19:44:40.658Z,73.50
2018-03-27T19:47:08.967Z,75.70
2018-03-27T19:49:36.674Z,75.60
2018-03-27T19:52:04.338Z,76.30
2018-03-27T19:54:31.890Z,76.90
2018-03-27T19:56:59.508Z,77.10
2018-03-27T19:59:27.826Z,78.80
2018-03-27T20:01:55.374Z,78.90
2018-03-27T20:04:23.003Z,78.80
2018-03-27T20:06:50.671Z,78.60
2018-03-27T20:09:18.230Z,78.20
2018-03-27T20:11:45.977Z,78.40
2018-03-27T20:14:13.492Z,78.70
2018-03-27T20:16:41.796Z,78.90
2018-03-27T20:19:09.310Z,78.80
2018-03-27T20:21:36.831Z,78.90
2018-03-27T20:24:04.368Z,78.80
2018-03-27T20:26:32.732Z,78.60
2018-03-27T20:29:01.058Z,78.70
2018-03-27T20:31:28.606Z,78.60
2018-03-27T20:33:56.894Z,79.20
2018-03-27T20:36:24.578Z,79.10
2018-03-27T20:38:52.131Z,79.00
2018-03-27T20:41:19.659Z,79.30
2018-03-27T20:43:47.950Z,79.20
2018-03-27T20:46:16.339Z,78.80
2018-03-27T20:48:44.618Z,78.40
2018-03-27T20:51:12.914Z,78.30
2018-03-27T20:53:40.472Z,78.30
2018-03-27T20:56:08.747Z,77.80
2018-03-27T20:58:37.268Z,77.70
2018-03-27T21:01:04.816Z,77.60
2018-03-27T21:03:32.323Z,77.70
2018-03-27T21:05:59.847Z,77.30
2018-03-27T21:08:27.391Z,77.40
2018-03-27T21:10:56.726Z,77.70
2018-03-27T21:13:24.254Z,77.60
2018-03-27T21:15:52.562Z,77.70
2018-03-27T21:18:20.083Z,77.50
2018-03-27T21:20:48.364Z,78.00
2018-03-27T21:23:17.411Z,77.50
2018-03-27T21:25:44.934Z,77.50
2018-03-27T21:28:13.209Z,77.40
2018-03-27T21:30:40.749Z,77.30
2018-03-27T21:33:08.279Z,77.50
2018-03-27T21:35:35.802Z,77.70
2018-03-27T21:38:03.347Z,78.20
2018-03-27T21:40:31.494Z,78.20
2018-03-27T21:42:59.007Z,78.60
2018-03-27T21:45:27.336Z,79.00
2018-03-27T21:47:54.947Z,78.90
2018-03-27T21:50:22.466Z,79.40
2018-03-27T21:52:50.019Z,79.70
2018-03-27T21:55:17.568Z,80.00
2018-03-27T21:57:45.890Z,79.60
2018-03-27T22:00:13.418Z,79.40
2018-03-27T22:02:41.723Z,79.70
2018-03-27T22:05:10.161Z,79.60
2018-03-27T22:07:38.498Z,80.10
2018-03-27T22:10:06.860Z,80.10
2018-03-27T22:12:34.393Z,79.90
2018-03-27T22:15:02.010Z,79.90
2018-03-27T22:17:32.666Z,79.80
2018-03-27T22:20:00.224Z,80.00
2018-03-27T22:22:27.783Z,80.60
2018-03-27T22:24:55.344Z,80.10
2018-03-27T22:27:22.963Z,80.10
2018-03-27T22:29:51.280Z,80.60
2018-03-27T22:32:18.819Z,80.50
2018-03-27T22:34:47.094Z,80.40
2018-03-27T22:37:15.388Z,79.90
2018-03-27T22:39:42.921Z,79.80
2018-03-27T22:42:11.234Z,80.30
2018-03-27T22:44:39.549Z,80.20
2018-03-27T22:47:07.106Z,80.20
2018-03-27T22:49:34.747Z,79.80
2018-03-27T22:52:02.302Z,80.10
2018-03-27T22:54:30.580Z,80.10
2018-03-27T22:56:58.850Z,80.60
2018-03-27T22:59:27.148Z,80.40
2018-03-27T23:01:55.428Z,80.50
2018-03-27T23:04:24.182Z,80.30
2018-03-27T23:06:51.833Z,80.20
2018-03-27T23:09:19.371Z,80.40
2018-03-27T23:11:46.892Z,80.80
2018-03-27T23:14:14.479Z,80.90
2018-03-27T23:16:42.762Z,80.70
2018-03-27T23:19:11.039Z,80.70
2018-03-27T23:21:39.347Z,80.70
2018-03-27T23:24:06.863Z,80.60
2018-03-27T23:26:35.265Z,82.00
2018-03-27T23:29:03.563Z,81.80
2018-03-27T23:31:31.883Z,81.90
2018-03-27T23:33:59.425Z,81.70
2018-03-27T23:36:27.199Z,82.10
2018-03-27T23:38:54.719Z,82.20
2018-03-27T23:41:22.242Z,82.20
2018-03-27T23:43:49.771Z,82.00
2018-03-27T23:46:18.059Z,81.90
2018-03-27T23:48:45.765Z,81.90
2018-03-27T23:51:15.061Z,82.80
2018-03-27T23:53:42.765Z,82.10
2018-03-27T23:56:11.058Z,81.80
2018-03-27T23:58:38.603Z,81.70
